KOAJ/OAJ METAR and TAF weather

Enter ICAO airport designator
Station Type Date Time Source
KOAJ METAR 2019/02/16 16:56 UTC NOAA

KOAJ 161656Z 20011KT 10SM -RA OVC008 13/13 A2973 RMK AO2 RAE13B38 CIG 006V011 SLP072 P0000 T01330133


Station Type Date Time Source
KOAJ Decoded METAR 2019/02/16 16:56 UTC NOAA

Jacksonville, Albert J Ellis Airport, NC, United States (KOAJ) 34-50N 077-37W
Feb 16, 2019 - 11:56 AM EST / 2019.02.16 1656 UTC
Wind: from the SSW (200 degrees) at 13 MPH (11 KT):0
Visibility: 10 mile(s):0
Sky conditions: overcast
Weather: light rain
Precipitation last hour: A trace
Temperature: 55.9 F (13.3 C)
Dew Point: 55.9 F (13.3 C)
Relative Humidity: 100%
Pressure (altimeter): 29.73 in. Hg (1006 hPa)
ob: KOAJ 161656Z 20011KT 10SM -RA OVC008 13/13 A2973 RMK AO2 RAE13B38 CIG 006V011 SLP072 P0000 T01330133
cycle: 17

Station Type Date Time Source
KOAJ TAF 2019/02/16 12:36 UTC NOAA

TAF KOAJ 161134Z 1612/1712 20005KT 6SM RA BKN020 BKN040 OVC070
FM161700 VRB05KT 3SM RA OVC010
FM161800 03010G15KT 5SM -RA OVC007
FM162000 03010G15KT P6SM VCSH OVC007
FM162300 03010G15KT 6SM BR OVC007
FM170300 02005KT P6SM BKN007
FM170500 02005KT P6SM BKN010
FM170700 02005KT P6SM BKN050
AMD LTD TO CLD VIS AND WIND


Example: see airport list